MDT,Max TemperatureF,Mean TemperatureF,Min TemperatureF,Max Dew PointF,MeanDew PointF,Min DewpointF,Max Humidity, Mean Humidity, Min Humidity, Max Sea Level PressureIn, Mean Sea Level PressureIn, Min Sea Level PressureIn, Max VisibilityMiles, Mean VisibilityMiles, Min VisibilityMiles, Max Wind SpeedMPH, Mean Wind SpeedMPH, Max Gust SpeedMPH,PrecipitationIn, CloudCover, Events, WindDirDegrees
2013-7-1,90,74,57,61,57,50,93,60,27,30.16,30.10,30.05,10,10,10,13,8,20,0.00,0,,53
2013-7-2,99,78,56,62,55,49,86,52,18,30.06,29.95,29.81,10,10,10,14,6,15,0.00,0,,162
2013-7-3,98,82,65,62,53,42,73,45,16,29.86,29.81,29.76,10,10,10,23,9,32,0.00,0,,263
2013-7-4,91,76,61,63,52,39,97,58,18,29.86,29.77,29.65,10,10,7,16,7,22,0.00,1,,259
2013-7-5,80,67,53,54,51,45,86,60,33,29.93,29.78,29.66,10,10,10,35,8,44,T,3,Rain,329
2013-7-6,75,60,45,52,49,45,93,66,38,29.99,29.91,29.82,10,10,10,15,7,21,0.00,3,,42
2013-7-7,82,65,48,55,51,47,93,65,36,30.02,29.90,29.80,10,10,10,18,8,22,0.00,2,,32
2013-7-8,84,67,49,57,52,37,100,65,30,30.12,29.94,29.83,10,10,5,39,8,56,0.07,3,Rain,307
2013-7-9,82,64,46,52,46,40,93,58,23,30.16,30.10,30.03,10,10,10,13,5,24,0.00,0,,76
2013-7-10,97,73,48,51,44,35,86,49,12,30.04,29.88,29.68,10,10,10,25,8,41,T,0,Rain,209
2013-7-11,91,75,58,48,43,39,62,40,17,29.73,29.68,29.64,10,10,10,30,13,38,T,1,,229
2013-7-12,88,72,56,52,44,37,72,46,19,29.85,29.78,29.73,10,10,10,28,10,41,0.01,1,Rain,213
2013-7-13,78,64,50,48,43,39,83,56,29,30.15,30.01,29.82,10,10,10,20,9,25,0.00,1,,52
2013-7-14,87,72,56,49,42,29,62,38,14,30.16,30.04,29.91,10,10,10,16,7,23,T,1,,144
2013-7-15,96,75,53,52,44,29,67,39,10,30.13,29.88,29.75,10,10,10,31,16,40,0.00,0,,243
2013-7-16,78,63,47,48,45,42,80,57,33,30.26,30.17,30.09,10,10,10,17,7,23,0.00,0,,44
2013-7-17,92,74,55,61,53,47,77,53,29,30.16,30.03,29.89,10,9,1,37,7,45,0.14,2,Rain-Thunderstorm,222
2013-7-18,90,74,57,54,46,40,78,48,17,30.07,30.02,29.97,10,10,10,17,11,25,0.00,0,,260
2013-7-19,91,72,52,47,41,31,72,42,12,30.04,29.97,29.90,10,10,10,21,9,26,0.00,0,,305
2013-7-20,91,71,50,51,44,35,93,54,15,29.99,29.88,29.74,10,10,10,16,6,20,0.00,0,,252
2013-7-21,89,71,52,50,42,35,49,33,17,29.85,29.77,29.72,10,10,10,17,8,22,0.00,0,,194
2013-7-22,91,71,50,49,42,32,80,47,13,29.91,29.82,29.75,10,10,10,31,10,39,0.00,0,,291
2013-7-23,88,68,48,51,45,39,71,46,21,30.07,30.00,29.90,10,10,10,17,7,21,0.00,0,,16
2013-7-24,95,74,52,55,46,34,83,48,12,30.04,29.96,29.86,10,10,10,36,8,46,0.00,0,,30
2013-7-25,86,70,53,56,53,49,93,61,29,30.16,30.08,30.03,10,10,10,23,10,30,0.00,0,,55
2013-7-26,93,74,55,53,47,32,86,49,12,30.11,30.01,29.90,10,10,10,20,10,24,0.00,0,,97
2013-7-27,93,72,51,54,40,20,83,45,7,29.91,29.83,29.73,10,10,8,23,9,30,0.00,0,,264
2013-7-28,81,66,50,52,50,47,89,61,32,29.91,29.86,29.81,10,10,10,22,9,29,0.08,2,,355
2013-7-29,68,59,50,51,50,48,93,73,52,30.12,30.05,29.96,10,10,9,21,5,28,0.07,6,Rain,18
2013-7-30,74,63,52,48,47,47,83,62,41,30.21,30.14,30.09,10,10,10,15,8,16,0.00,4,,47
2013-7-31,86,66,46,50,45,36,100,60,20,30.22,30.12,30.02,10,10,10,16,8,23,0.00,0,,71